sensor_id;sensor_type;location;lat;lon;timestamp;P1;durP1;ratioP1;P2;durP2;ratioP2
21215;SDS011;10765;50.954;5.322;2022-07-01T00:01:40;22.30;;;13.27;;
21215;SDS011;10765;50.954;5.322;2022-07-01T00:04:08;19.03;;;11.97;;
21215;SDS011;10765;50.954;5.322;2022-07-01T00:06:36;19.90;;;12.47;;
21215;SDS011;10765;50.954;5.322;2022-07-01T00:09:03;19.60;;;13.97;;
21215;SDS011;10765;50.954;5.322;2022-07-01T00:11:30;18.23;;;13.03;;
21215;SDS011;10765;50.954;5.322;2022-07-01T00:13:57;21.93;;;13.30;;
21215;SDS011;10765;50.954;5.322;2022-07-01T00:16:24;17.77;;;12.43;;
21215;SDS011;10765;50.954;5.322;2022-07-01T00:18:51;18.60;;;12.43;;
21215;SDS011;10765;50.954;5.322;2022-07-01T00:21:22;17.73;;;12.77;;
21215;SDS011;10765;50.954;5.322;2022-07-01T00:23:49;16.57;;;12.00;;
21215;SDS011;10765;50.954;5.322;2022-07-01T00:26:16;20.03;;;13.23;;
21215;SDS011;10765;50.954;5.322;2022-07-01T00:28:43;22.03;;;14.10;;
21215;SDS011;10765;50.954;5.322;2022-07-01T00:31:10;16.77;;;12.77;;
21215;SDS011;10765;50.954;5.322;2022-07-01T00:33:36;21.20;;;14.23;;
21215;SDS011;10765;50.954;5.322;2022-07-01T00:36:04;18.30;;;13.10;;
21215;SDS011;10765;50.954;5.322;2022-07-01T00:38:32;17.50;;;12.33;;
21215;SDS011;10765;50.954;5.322;2022-07-01T00:40:59;17.97;;;12.47;;
21215;SDS011;10765;50.954;5.322;2022-07-01T00:43:27;16.33;;;12.53;;
21215;SDS011;10765;50.954;5.322;2022-07-01T00:45:53;17.07;;;12.77;;
21215;SDS011;10765;50.954;5.322;2022-07-01T00:48:21;12.63;;;10.87;;
21215;SDS011;10765;50.954;5.322;2022-07-01T00:50:48;15.80;;;11.87;;
21215;SDS011;10765;50.954;5.322;2022-07-01T00:53:16;22.00;;;12.17;;
21215;SDS011;10765;50.954;5.322;2022-07-01T00:55:44;25.77;;;13.50;;
21215;SDS011;10765;50.954;5.322;2022-07-01T00:58:11;16.20;;;12.03;;
21215;SDS011;10765;50.954;5.322;2022-07-01T01:00:38;15.87;;;11.77;;
21215;SDS011;10765;50.954;5.322;2022-07-01T01:03:05;14.73;;;11.27;;
21215;SDS011;10765;50.954;5.322;2022-07-01T01:05:35;14.63;;;11.40;;
21215;SDS011;10765;50.954;5.322;2022-07-01T01:08:03;14.10;;;11.00;;
21215;SDS011;10765;50.954;5.322;2022-07-01T01:10:30;14.00;;;10.63;;
21215;SDS011;10765;50.954;5.322;2022-07-01T01:12:59;14.10;;;10.77;;
21215;SDS011;10765;50.954;5.322;2022-07-01T01:15:26;12.73;;;9.93;;
21215;SDS011;10765;50.954;5.322;2022-07-01T01:17:53;14.13;;;9.60;;
21215;SDS011;10765;50.954;5.322;2022-07-01T01:20:21;11.47;;;9.00;;
21215;SDS011;10765;50.954;5.322;2022-07-01T01:22:50;10.83;;;8.60;;
21215;SDS011;10765;50.954;5.322;2022-07-01T01:25:17;10.47;;;9.43;;
21215;SDS011;10765;50.954;5.322;2022-07-01T01:27:44;9.20;;;7.57;;
21215;SDS011;10765;50.954;5.322;2022-07-01T01:30:11;9.50;;;7.87;;
21215;SDS011;10765;50.954;5.322;2022-07-01T01:32:38;13.23;;;7.47;;
21215;SDS011;10765;50.954;5.322;2022-07-01T01:35:07;8.07;;;7.30;;
21215;SDS011;10765;50.954;5.322;2022-07-01T01:37:34;8.50;;;7.53;;
21215;SDS011;10765;50.954;5.322;2022-07-01T01:40:03;8.80;;;7.20;;
21215;SDS011;10765;50.954;5.322;2022-07-01T01:42:31;9.20;;;6.47;;
21215;SDS011;10765;50.954;5.322;2022-07-01T01:45:01;7.80;;;7.00;;
21215;SDS011;10765;50.954;5.322;2022-07-01T01:47:28;8.27;;;6.37;;
21215;SDS011;10765;50.954;5.322;2022-07-01T01:49:55;8.57;;;7.00;;
21215;SDS011;10765;50.954;5.322;2022-07-01T01:52:22;8.80;;;6.43;;
21215;SDS011;10765;50.954;5.322;2022-07-01T01:54:49;7.73;;;6.93;;
21215;SDS011;10765;50.954;5.322;2022-07-01T01:57:17;7.30;;;6.50;;
21215;SDS011;10765;50.954;5.322;2022-07-01T01:59:44;8.60;;;6.87;;
21215;SDS011;10765;50.954;5.322;2022-07-01T02:02:11;7.87;;;6.60;;
21215;SDS011;10765;50.954;5.322;2022-07-01T02:04:38;8.43;;;6.53;;
21215;SDS011;10765;50.954;5.322;2022-07-01T02:07:06;7.63;;;6.77;;
21215;SDS011;10765;50.954;5.322;2022-07-01T02:09:33;7.43;;;6.60;;
21215;SDS011;10765;50.954;5.322;2022-07-01T02:12:00;7.23;;;6.57;;
21215;SDS011;10765;50.954;5.322;2022-07-01T02:14:28;8.07;;;6.60;;
21215;SDS011;10765;50.954;5.322;2022-07-01T02:16:55;9.53;;;6.43;;
21215;SDS011;10765;50.954;5.322;2022-07-01T02:19:23;8.90;;;6.63;;
21215;SDS011;10765;50.954;5.322;2022-07-01T02:21:50;6.73;;;6.03;;
21215;SDS011;10765;50.954;5.322;2022-07-01T02:24:17;9.50;;;6.33;;
21215;SDS011;10765;50.954;5.322;2022-07-01T02:26:44;9.23;;;7.17;;
21215;SDS011;10765;50.954;5.322;2022-07-01T02:29:11;7.03;;;6.33;;
21215;SDS011;10765;50.954;5.322;2022-07-01T02:31:40;8.17;;;6.60;;
21215;SDS011;10765;50.954;5.322;2022-07-01T02:34:07;11.30;;;7.17;;
21215;SDS011;10765;50.954;5.322;2022-07-01T02:36:34;8.20;;;6.90;;
21215;SDS011;10765;50.954;5.322;2022-07-01T02:39:01;9.30;;;7.17;;
21215;SDS011;10765;50.954;5.322;2022-07-01T02:41:28;8.33;;;7.17;;
21215;SDS011;10765;50.954;5.322;2022-07-01T02:43:55;8.10;;;6.80;;
21215;SDS011;10765;50.954;5.322;2022-07-01T02:46:22;9.40;;;7.63;;
21215;SDS011;10765;50.954;5.322;2022-07-01T02:48:50;7.27;;;6.53;;
21215;SDS011;10765;50.954;5.322;2022-07-01T02:51:17;9.60;;;8.07;;
21215;SDS011;10765;50.954;5.322;2022-07-01T02:53:44;8.37;;;7.20;;
21215;SDS011;10765;50.954;5.322;2022-07-01T02:56:11;9.40;;;7.23;;
21215;SDS011;10765;50.954;5.322;2022-07-01T02:58:38;11.47;;;7.57;;
21215;SDS011;10765;50.954;5.322;2022-07-01T03:01:06;10.93;;;7.87;;
21215;SDS011;10765;50.954;5.322;2022-07-01T03:03:33;11.10;;;7.90;;
21215;SDS011;10765;50.954;5.322;2022-07-01T03:06:02;9.17;;;7.70;;
21215;SDS011;10765;50.954;5.322;2022-07-01T03:08:29;9.10;;;7.50;;
21215;SDS011;10765;50.954;5.322;2022-07-01T03:10:55;12.00;;;8.10;;
21215;SDS011;10765;50.954;5.322;2022-07-01T03:13:22;11.83;;;8.70;;
21215;SDS011;10765;50.954;5.322;2022-07-01T03:15:52;9.20;;;8.00;;
21215;SDS011;10765;50.954;5.322;2022-07-01T03:18:19;12.20;;;8.67;;
21215;SDS011;10765;50.954;5.322;2022-07-01T03:20:45;9.80;;;8.80;;
21215;SDS011;10765;50.954;5.322;2022-07-01T03:23:15;10.93;;;8.37;;
21215;SDS011;10765;50.954;5.322;2022-07-01T03:25:45;10.17;;;8.53;;
21215;SDS011;10765;50.954;5.322;2022-07-01T03:28:12;11.10;;;8.00;;
21215;SDS011;10765;50.954;5.322;2022-07-01T03:30:39;10.10;;;8.03;;
21215;SDS011;10765;50.954;5.322;2022-07-01T03:33:06;9.17;;;8.20;;
21215;SDS011;10765;50.954;5.322;2022-07-01T03:35:33;11.07;;;9.00;;
21215;SDS011;10765;50.954;5.322;2022-07-01T03:38:04;10.57;;;8.60;;
21215;SDS011;10765;50.954;5.322;2022-07-01T03:40:34;11.77;;;9.20;;
21215;SDS011;10765;50.954;5.322;2022-07-01T03:43:01;12.87;;;9.23;;
21215;SDS011;10765;50.954;5.322;2022-07-01T03:45:29;10.77;;;8.60;;
21215;SDS011;10765;50.954;5.322;2022-07-01T03:47:56;9.73;;;8.23;;
21215;SDS011;10765;50.954;5.322;2022-07-01T03:50:24;9.97;;;8.40;;
21215;SDS011;10765;50.954;5.322;2022-07-01T03:52:52;9.40;;;8.40;;
21215;SDS011;10765;50.954;5.322;2022-07-01T03:55:34;11.40;;;9.10;;
21215;SDS011;10765;50.954;5.322;2022-07-01T03:58:01;9.30;;;7.60;;
21215;SDS011;10765;50.954;5.322;2022-07-01T04:00:32;11.17;;;8.73;;
21215;SDS011;10765;50.954;5.322;2022-07-01T04:03:00;11.07;;;8.67;;
21215;SDS011;10765;50.954;5.322;2022-07-01T04:05:27;9.83;;;8.40;;
21215;SDS011;10765;50.954;5.322;2022-07-01T04:07:54;13.13;;;8.80;;
21215;SDS011;10765;50.954;5.322;2022-07-01T04:10:23;9.97;;;7.63;;
21215;SDS011;10765;50.954;5.322;2022-07-01T04:12:52;8.20;;;7.33;;
21215;SDS011;10765;50.954;5.322;2022-07-01T04:15:19;9.97;;;7.50;;
21215;SDS011;10765;50.954;5.322;2022-07-01T04:17:46;11.60;;;8.23;;
21215;SDS011;10765;50.954;5.322;2022-07-01T04:20:13;8.97;;;8.07;;
21215;SDS011;10765;50.954;5.322;2022-07-01T04:22:40;12.17;;;8.43;;
21215;SDS011;10765;50.954;5.322;2022-07-01T04:25:06;8.30;;;7.50;;
21215;SDS011;10765;50.954;5.322;2022-07-01T04:27:34;9.17;;;7.53;;
21215;SDS011;10765;50.954;5.322;2022-07-01T04:30:02;9.80;;;7.73;;
21215;SDS011;10765;50.954;5.322;2022-07-01T04:32:29;11.17;;;7.60;;
21215;SDS011;10765;50.954;5.322;2022-07-01T04:34:56;10.33;;;7.37;;
21215;SDS011;10765;50.954;5.322;2022-07-01T04:37:23;9.67;;;7.73;;
21215;SDS011;10765;50.954;5.322;2022-07-01T04:39:50;11.33;;;7.80;;
21215;SDS011;10765;50.954;5.322;2022-07-01T04:42:17;9.90;;;7.07;;
21215;SDS011;10765;50.954;5.322;2022-07-01T04:44:45;7.70;;;6.90;;
21215;SDS011;10765;50.954;5.322;2022-07-01T04:47:13;10.70;;;7.23;;
21215;SDS011;10765;50.954;5.322;2022-07-01T04:49:40;9.53;;;6.67;;
21215;SDS011;10765;50.954;5.322;2022-07-01T04:52:07;11.40;;;7.27;;
21215;SDS011;10765;50.954;5.322;2022-07-01T04:54:34;9.43;;;6.47;;
21215;SDS011;10765;50.954;5.322;2022-07-01T04:57:02;10.43;;;7.43;;
21215;SDS011;10765;50.954;5.322;2022-07-01T04:59:29;8.77;;;6.53;;
21215;SDS011;10765;50.954;5.322;2022-07-01T05:01:56;8.10;;;6.63;;
21215;SDS011;10765;50.954;5.322;2022-07-01T05:04:25;8.57;;;5.87;;
21215;SDS011;10765;50.954;5.322;2022-07-01T05:06:53;9.13;;;6.30;;
21215;SDS011;10765;50.954;5.322;2022-07-01T05:09:20;7.57;;;5.77;;
21215;SDS011;10765;50.954;5.322;2022-07-01T05:11:47;8.07;;;5.93;;
21215;SDS011;10765;50.954;5.322;2022-07-01T05:14:14;6.93;;;5.50;;
21215;SDS011;10765;50.954;5.322;2022-07-01T05:16:41;7.50;;;5.90;;
21215;SDS011;10765;50.954;5.322;2022-07-01T05:19:10;7.70;;;6.00;;
21215;SDS011;10765;50.954;5.322;2022-07-01T05:21:56;7.20;;;6.00;;
21215;SDS011;10765;50.954;5.322;2022-07-01T05:24:25;6.50;;;5.90;;
21215;SDS011;10765;50.954;5.322;2022-07-01T05:26:55;10.73;;;6.40;;
21215;SDS011;10765;50.954;5.322;2022-07-01T05:29:23;10.30;;;5.90;;
21215;SDS011;10765;50.954;5.322;2022-07-01T05:31:50;7.23;;;5.20;;
21215;SDS011;10765;50.954;5.322;2022-07-01T05:34:17;9.30;;;5.80;;
21215;SDS011;10765;50.954;5.322;2022-07-01T05:36:44;7.67;;;5.70;;
21215;SDS011;10765;50.954;5.322;2022-07-01T05:39:14;9.90;;;6.30;;
21215;SDS011;10765;50.954;5.322;2022-07-01T05:41:42;10.03;;;6.37;;
21215;SDS011;10765;50.954;5.322;2022-07-01T05:44:08;7.07;;;5.00;;
21215;SDS011;10765;50.954;5.322;2022-07-01T05:46:36;6.77;;;4.80;;
21215;SDS011;10765;50.954;5.322;2022-07-01T05:49:04;7.10;;;4.67;;
21215;SDS011;10765;50.954;5.322;2022-07-01T05:51:31;6.57;;;4.23;;
21215;SDS011;10765;50.954;5.322;2022-07-01T05:53:58;6.57;;;4.00;;
21215;SDS011;10765;50.954;5.322;2022-07-01T05:56:27;8.87;;;3.87;;
21215;SDS011;10765;50.954;5.322;2022-07-01T05:58:54;7.93;;;3.87;;
21215;SDS011;10765;50.954;5.322;2022-07-01T06:01:21;6.67;;;3.83;;
21215;SDS011;10765;50.954;5.322;2022-07-01T06:03:48;5.97;;;3.67;;
21215;SDS011;10765;50.954;5.322;2022-07-01T06:06:15;5.77;;;3.73;;
21215;SDS011;10765;50.954;5.322;2022-07-01T06:08:44;5.83;;;3.80;;
21215;SDS011;10765;50.954;5.322;2022-07-01T06:11:11;7.00;;;3.63;;
21215;SDS011;10765;50.954;5.322;2022-07-01T06:13:41;5.93;;;3.60;;
21215;SDS011;10765;50.954;5.322;2022-07-01T06:16:08;5.97;;;3.70;;
21215;SDS011;10765;50.954;5.322;2022-07-01T06:18:35;7.23;;;3.83;;
21215;SDS011;10765;50.954;5.322;2022-07-01T06:21:02;7.37;;;3.80;;
21215;SDS011;10765;50.954;5.322;2022-07-01T06:23:29;7.43;;;3.50;;
21215;SDS011;10765;50.954;5.322;2022-07-01T06:25:56;6.53;;;3.30;;
21215;SDS011;10765;50.954;5.322;2022-07-01T06:28:23;5.47;;;3.20;;
21215;SDS011;10765;50.954;5.322;2022-07-01T06:30:56;4.70;;;3.13;;
21215;SDS011;10765;50.954;5.322;2022-07-01T06:33:23;5.43;;;3.10;;
21215;SDS011;10765;50.954;5.322;2022-07-01T06:35:52;5.13;;;2.87;;
21215;SDS011;10765;50.954;5.322;2022-07-01T06:38:19;4.60;;;2.57;;
21215;SDS011;10765;50.954;5.322;2022-07-01T06:40:46;4.07;;;2.63;;
21215;SDS011;10765;50.954;5.322;2022-07-01T06:43:33;5.57;;;2.90;;
21215;SDS011;10765;50.954;5.322;2022-07-01T06:46:02;4.60;;;3.20;;
21215;SDS011;10765;50.954;5.322;2022-07-01T06:48:30;6.93;;;3.10;;
21215;SDS011;10765;50.954;5.322;2022-07-01T06:50:57;2.97;;;2.63;;
21215;SDS011;10765;50.954;5.322;2022-07-01T06:53:24;5.57;;;3.10;;
21215;SDS011;10765;50.954;5.322;2022-07-01T06:55:51;7.13;;;3.20;;
21215;SDS011;10765;50.954;5.322;2022-07-01T06:58:18;5.13;;;2.93;;
21215;SDS011;10765;50.954;5.322;2022-07-01T07:00:45;6.03;;;2.60;;
21215;SDS011;10765;50.954;5.322;2022-07-01T07:03:14;3.83;;;2.47;;
21215;SDS011;10765;50.954;5.322;2022-07-01T07:05:44;4.30;;;2.50;;
21215;SDS011;10765;50.954;5.322;2022-07-01T07:08:13;5.23;;;2.47;;
21215;SDS011;10765;50.954;5.322;2022-07-01T07:10:41;5.87;;;2.50;;
21215;SDS011;10765;50.954;5.322;2022-07-01T07:13:08;5.00;;;2.60;;
21215;SDS011;10765;50.954;5.322;2022-07-01T07:15:36;3.57;;;2.40;;
21215;SDS011;10765;50.954;5.322;2022-07-01T07:18:06;6.67;;;3.03;;
21215;SDS011;10765;50.954;5.322;2022-07-01T07:20:35;6.07;;;2.10;;
21215;SDS011;10765;50.954;5.322;2022-07-01T07:23:04;6.23;;;2.20;;
21215;SDS011;10765;50.954;5.322;2022-07-01T07:25:31;3.60;;;1.90;;
21215;SDS011;10765;50.954;5.322;2022-07-01T07:27:58;3.77;;;1.57;;
21215;SDS011;10765;50.954;5.322;2022-07-01T07:30:25;3.93;;;1.87;;
21215;SDS011;10765;50.954;5.322;2022-07-01T07:32:52;2.30;;;1.40;;
21215;SDS011;10765;50.954;5.322;2022-07-01T07:35:20;3.40;;;1.70;;
21215;SDS011;10765;50.954;5.322;2022-07-01T07:37:48;4.03;;;1.50;;
21215;SDS011;10765;50.954;5.322;2022-07-01T07:40:15;3.73;;;1.60;;
21215;SDS011;10765;50.954;5.322;2022-07-01T07:42:44;3.17;;;1.63;;
21215;SDS011;10765;50.954;5.322;2022-07-01T07:45:12;4.30;;;1.57;;
21215;SDS011;10765;50.954;5.322;2022-07-01T07:47:41;4.20;;;1.60;;
21215;SDS011;10765;50.954;5.322;2022-07-01T07:50:09;2.70;;;1.50;;
21215;SDS011;10765;50.954;5.322;2022-07-01T07:52:36;4.53;;;1.73;;
21215;SDS011;10765;50.954;5.322;2022-07-01T07:55:05;2.87;;;1.60;;
21215;SDS011;10765;50.954;5.322;2022-07-01T07:57:36;3.63;;;1.20;;
21215;SDS011;10765;50.954;5.322;2022-07-01T08:00:03;3.10;;;1.30;;
21215;SDS011;10765;50.954;5.322;2022-07-01T08:02:31;4.30;;;1.50;;
21215;SDS011;10765;50.954;5.322;2022-07-01T08:04:58;4.40;;;1.60;;
21215;SDS011;10765;50.954;5.322;2022-07-01T08:07:25;1.40;;;1.20;;
21215;SDS011;10765;50.954;5.322;2022-07-01T08:09:53;3.10;;;1.33;;
21215;SDS011;10765;50.954;5.322;2022-07-01T08:12:21;1.97;;;1.10;;
21215;SDS011;10765;50.954;5.322;2022-07-01T08:14:51;2.63;;;1.30;;
21215;SDS011;10765;50.954;5.322;2022-07-01T08:17:18;3.67;;;1.20;;
21215;SDS011;10765;50.954;5.322;2022-07-01T08:19:45;2.63;;;1.03;;
21215;SDS011;10765;50.954;5.322;2022-07-01T08:22:12;3.43;;;1.30;;
21215;SDS011;10765;50.954;5.322;2022-07-01T08:24:39;2.80;;;1.40;;
21215;SDS011;10765;50.954;5.322;2022-07-01T08:27:06;2.33;;;1.30;;
21215;SDS011;10765;50.954;5.322;2022-07-01T08:29:34;3.70;;;1.30;;
21215;SDS011;10765;50.954;5.322;2022-07-01T08:32:01;3.73;;;1.50;;
21215;SDS011;10765;50.954;5.322;2022-07-01T08:34:29;3.20;;;1.20;;
21215;SDS011;10765;50.954;5.322;2022-07-01T08:36:56;2.70;;;1.50;;
21215;SDS011;10765;50.954;5.322;2022-07-01T08:39:23;1.97;;;1.10;;
21215;SDS011;10765;50.954;5.322;2022-07-01T08:41:50;2.10;;;1.30;;
21215;SDS011;10765;50.954;5.322;2022-07-01T08:44:17;2.03;;;1.00;;
21215;SDS011;10765;50.954;5.322;2022-07-01T08:46:46;2.43;;;1.33;;
21215;SDS011;10765;50.954;5.322;2022-07-01T08:49:14;3.30;;;1.17;;
21215;SDS011;10765;50.954;5.322;2022-07-01T08:51:42;3.73;;;1.37;;
21215;SDS011;10765;50.954;5.322;2022-07-01T08:54:09;1.87;;;1.00;;
21215;SDS011;10765;50.954;5.322;2022-07-01T08:56:36;2.63;;;1.30;;
21215;SDS011;10765;50.954;5.322;2022-07-01T08:59:21;2.20;;;1.10;;
21215;SDS011;10765;50.954;5.322;2022-07-01T09:01:55;2.20;;;1.10;;
21215;SDS011;10765;50.954;5.322;2022-07-01T09:04:23;2.33;;;1.20;;
21215;SDS011;10765;50.954;5.322;2022-07-01T09:06:51;7.20;;;1.30;;
21215;SDS011;10765;50.954;5.322;2022-07-01T09:09:26;2.33;;;0.90;;
21215;SDS011;10765;50.954;5.322;2022-07-01T09:11:54;2.53;;;0.90;;
21215;SDS011;10765;50.954;5.322;2022-07-01T09:14:23;2.97;;;1.03;;
21215;SDS011;10765;50.954;5.322;2022-07-01T09:16:52;1.97;;;1.10;;
21215;SDS011;10765;50.954;5.322;2022-07-01T09:19:23;2.50;;;1.00;;
21215;SDS011;10765;50.954;5.322;2022-07-01T09:21:51;2.63;;;1.13;;
21215;SDS011;10765;50.954;5.322;2022-07-01T09:24:22;1.50;;;1.17;;
21215;SDS011;10765;50.954;5.322;2022-07-01T09:26:54;2.27;;;1.30;;
21215;SDS011;10765;50.954;5.322;2022-07-01T09:29:29;4.60;;;1.30;;
21215;SDS011;10765;50.954;5.322;2022-07-01T09:32:01;3.37;;;1.20;;
21215;SDS011;10765;50.954;5.322;2022-07-01T09:34:32;2.67;;;1.13;;
21215;SDS011;10765;50.954;5.322;2022-07-01T09:37:00;2.60;;;1.20;;
21215;SDS011;10765;50.954;5.322;2022-07-01T09:39:28;3.37;;;1.10;;
21215;SDS011;10765;50.954;5.322;2022-07-01T09:41:55;5.07;;;1.47;;
21215;SDS011;10765;50.954;5.322;2022-07-01T09:44:23;3.03;;;1.30;;
21215;SDS011;10765;50.954;5.322;2022-07-01T09:46:51;3.97;;;1.60;;
21215;SDS011;10765;50.954;5.322;2022-07-01T09:49:21;4.33;;;1.50;;
21215;SDS011;10765;50.954;5.322;2022-07-01T09:51:51;4.77;;;1.70;;
21215;SDS011;10765;50.954;5.322;2022-07-01T09:54:18;3.50;;;1.20;;
21215;SDS011;10765;50.954;5.322;2022-07-01T09:56:46;2.30;;;1.30;;
21215;SDS011;10765;50.954;5.322;2022-07-01T09:59:13;3.43;;;1.40;;
21215;SDS011;10765;50.954;5.322;2022-07-01T10:01:40;2.90;;;1.43;;
21215;SDS011;10765;50.954;5.322;2022-07-01T10:04:10;2.00;;;1.37;;
21215;SDS011;10765;50.954;5.322;2022-07-01T10:06:48;3.50;;;1.37;;
21215;SDS011;10765;50.954;5.322;2022-07-01T10:09:47;1.70;;;1.20;;
21215;SDS011;10765;50.954;5.322;2022-07-01T10:15:09;2.93;;;1.50;;
21215;SDS011;10765;50.954;5.322;2022-07-01T10:17:41;3.33;;;1.47;;
21215;SDS011;10765;50.954;5.322;2022-07-01T10:20:11;2.80;;;1.33;;
21215;SDS011;10765;50.954;5.322;2022-07-01T10:22:41;3.30;;;1.40;;
21215;SDS011;10765;50.954;5.322;2022-07-01T10:28:15;2.17;;;1.33;;
21215;SDS011;10765;50.954;5.322;2022-07-01T10:30:51;3.97;;;1.40;;
21215;SDS011;10765;50.954;5.322;2022-07-01T10:33:32;3.07;;;1.33;;
21215;SDS011;10765;50.954;5.322;2022-07-01T10:36:12;2.93;;;1.70;;
21215;SDS011;10765;50.954;5.322;2022-07-01T10:41:41;1.98;;;1.20;;
21215;SDS011;10765;50.954;5.322;2022-07-01T10:44:21;2.83;;;1.55;;
21215;SDS011;10765;50.954;5.322;2022-07-01T10:46:49;3.40;;;1.50;;
21215;SDS011;10765;50.954;5.322;2022-07-01T10:52:21;2.53;;;1.13;;
21215;SDS011;10765;50.954;5.322;2022-07-01T10:54:51;3.40;;;1.23;;
21215;SDS011;10765;50.954;5.322;2022-07-01T10:57:28;2.30;;;1.30;;
21215;SDS011;10765;50.954;5.322;2022-07-01T11:05:52;3.90;;;1.40;;
21215;SDS011;10765;50.954;5.322;2022-07-01T11:08:21;3.07;;;1.20;;
21215;SDS011;10765;50.954;5.322;2022-07-01T11:10:54;1.97;;;0.97;;
21215;SDS011;10765;50.954;5.322;2022-07-01T11:13:22;2.43;;;0.90;;
21215;SDS011;10765;50.954;5.322;2022-07-01T11:15:50;3.47;;;1.30;;
21215;SDS011;10765;50.954;5.322;2022-07-01T11:18:18;2.60;;;0.90;;
21215;SDS011;10765;50.954;5.322;2022-07-01T11:20:45;3.00;;;1.00;;
21215;SDS011;10765;50.954;5.322;2022-07-01T11:23:13;1.57;;;0.90;;
21215;SDS011;10765;50.954;5.322;2022-07-01T11:25:41;1.50;;;0.93;;
21215;SDS011;10765;50.954;5.322;2022-07-01T11:28:09;1.40;;;0.90;;
21215;SDS011;10765;50.954;5.322;2022-07-01T11:30:37;2.40;;;0.93;;
21215;SDS011;10765;50.954;5.322;2022-07-01T11:33:04;1.70;;;0.90;;
21215;SDS011;10765;50.954;5.322;2022-07-01T11:35:31;1.93;;;1.13;;
21215;SDS011;10765;50.954;5.322;2022-07-01T11:38:17;3.43;;;1.10;;
21215;SDS011;10765;50.954;5.322;2022-07-01T11:41:03;2.10;;;0.97;;
21215;SDS011;10765;50.954;5.322;2022-07-01T11:43:33;2.53;;;0.90;;
21215;SDS011;10765;50.954;5.322;2022-07-01T11:46:02;2.20;;;0.90;;
21215;SDS011;10765;50.954;5.322;2022-07-01T11:48:31;2.97;;;0.93;;
21215;SDS011;10765;50.954;5.322;2022-07-01T11:51:00;3.80;;;0.93;;
21215;SDS011;10765;50.954;5.322;2022-07-01T11:53:31;1.80;;;0.90;;
21215;SDS011;10765;50.954;5.322;2022-07-01T11:55:57;2.60;;;0.90;;
21215;SDS011;10765;50.954;5.322;2022-07-01T12:01:19;2.50;;;1.00;;
21215;SDS011;10765;50.954;5.322;2022-07-01T12:03:51;2.43;;;0.80;;
21215;SDS011;10765;50.954;5.322;2022-07-01T12:06:19;3.47;;;1.10;;
21215;SDS011;10765;50.954;5.322;2022-07-01T12:08:48;3.10;;;0.90;;
21215;SDS011;10765;50.954;5.322;2022-07-01T12:11:16;1.90;;;0.80;;
21215;SDS011;10765;50.954;5.322;2022-07-01T12:13:44;3.07;;;0.90;;
21215;SDS011;10765;50.954;5.322;2022-07-01T12:16:13;1.67;;;1.00;;
21215;SDS011;10765;50.954;5.322;2022-07-01T12:18:50;3.30;;;1.10;;
21215;SDS011;10765;50.954;5.322;2022-07-01T12:21:21;2.93;;;0.87;;
21215;SDS011;10765;50.954;5.322;2022-07-01T12:24:04;1.77;;;1.00;;
21215;SDS011;10765;50.954;5.322;2022-07-01T12:26:32;2.70;;;1.10;;
21215;SDS011;10765;50.954;5.322;2022-07-01T12:29:00;2.70;;;0.87;;
21215;SDS011;10765;50.954;5.322;2022-07-01T12:31:31;2.43;;;0.53;;
21215;SDS011;10765;50.954;5.322;2022-07-01T12:34:00;2.47;;;0.90;;
21215;SDS011;10765;50.954;5.322;2022-07-01T12:36:27;4.67;;;1.10;;
21215;SDS011;10765;50.954;5.322;2022-07-01T12:39:01;1.97;;;0.90;;
21215;SDS011;10765;50.954;5.322;2022-07-01T12:41:30;1.30;;;0.80;;
21215;SDS011;10765;50.954;5.322;2022-07-01T12:43:59;2.97;;;0.90;;
21215;SDS011;10765;50.954;5.322;2022-07-01T12:46:27;1.50;;;0.70;;
21215;SDS011;10765;50.954;5.322;2022-07-01T12:48:56;1.93;;;0.70;;
21215;SDS011;10765;50.954;5.322;2022-07-01T12:51:30;1.67;;;0.70;;
21215;SDS011;10765;50.954;5.322;2022-07-01T12:53:58;2.50;;;0.90;;
21215;SDS011;10765;50.954;5.322;2022-07-01T12:56:25;3.30;;;1.10;;
21215;SDS011;10765;50.954;5.322;2022-07-01T12:58:53;1.30;;;0.70;;
21215;SDS011;10765;50.954;5.322;2022-07-01T13:01:21;1.70;;;1.00;;
21215;SDS011;10765;50.954;5.322;2022-07-01T13:03:48;1.33;;;0.70;;
21215;SDS011;10765;50.954;5.322;2022-07-01T13:06:16;2.97;;;1.00;;
21215;SDS011;10765;50.954;5.322;2022-07-01T13:08:43;2.57;;;0.93;;
21215;SDS011;10765;50.954;5.322;2022-07-01T13:11:11;3.57;;;1.07;;
21215;SDS011;10765;50.954;5.322;2022-07-01T13:13:38;2.77;;;0.90;;
21215;SDS011;10765;50.954;5.322;2022-07-01T13:16:05;1.63;;;0.90;;
21215;SDS011;10765;50.954;5.322;2022-07-01T13:18:32;2.27;;;0.97;;
21215;SDS011;10765;50.954;5.322;2022-07-01T13:20:59;3.77;;;1.10;;
21215;SDS011;10765;50.954;5.322;2022-07-01T13:23:27;1.53;;;0.87;;
21215;SDS011;10765;50.954;5.322;2022-07-01T13:25:54;2.40;;;1.17;;
21215;SDS011;10765;50.954;5.322;2022-07-01T13:28:21;1.77;;;1.03;;
21215;SDS011;10765;50.954;5.322;2022-07-01T13:30:48;1.57;;;0.70;;
21215;SDS011;10765;50.954;5.322;2022-07-01T13:33:15;2.33;;;0.80;;
21215;SDS011;10765;50.954;5.322;2022-07-01T13:35:42;4.53;;;1.10;;
21215;SDS011;10765;50.954;5.322;2022-07-01T13:38:09;2.77;;;1.10;;
21215;SDS011;10765;50.954;5.322;2022-07-01T13:40:37;3.37;;;1.30;;
21215;SDS011;10765;50.954;5.322;2022-07-01T13:43:05;3.83;;;1.10;;
21215;SDS011;10765;50.954;5.322;2022-07-01T13:45:32;1.07;;;0.87;;
21215;SDS011;10765;50.954;5.322;2022-07-01T13:47:59;4.37;;;0.90;;
21215;SDS011;10765;50.954;5.322;2022-07-01T13:50:26;1.73;;;1.10;;
21215;SDS011;10765;50.954;5.322;2022-07-01T13:52:53;2.57;;;1.00;;
21215;SDS011;10765;50.954;5.322;2022-07-01T13:55:20;3.33;;;0.90;;
21215;SDS011;10765;50.954;5.322;2022-07-01T13:57:49;2.47;;;0.70;;
21215;SDS011;10765;50.954;5.322;2022-07-01T14:00:16;2.13;;;1.07;;
21215;SDS011;10765;50.954;5.322;2022-07-01T14:02:44;1.90;;;1.10;;
21215;SDS011;10765;50.954;5.322;2022-07-01T14:05:11;1.47;;;0.90;;
21215;SDS011;10765;50.954;5.322;2022-07-01T14:07:41;2.73;;;0.80;;
21215;SDS011;10765;50.954;5.322;2022-07-01T14:10:09;1.17;;;0.90;;
21215;SDS011;10765;50.954;5.322;2022-07-01T14:12:36;2.30;;;0.80;;
21215;SDS011;10765;50.954;5.322;2022-07-01T14:15:05;2.53;;;0.80;;
21215;SDS011;10765;50.954;5.322;2022-07-01T14:17:34;2.00;;;1.10;;
21215;SDS011;10765;50.954;5.322;2022-07-01T14:20:02;3.53;;;0.83;;
21215;SDS011;10765;50.954;5.322;2022-07-01T14:22:30;2.47;;;0.80;;
21215;SDS011;10765;50.954;5.322;2022-07-01T14:24:58;1.20;;;0.80;;
21215;SDS011;10765;50.954;5.322;2022-07-01T14:27:27;1.00;;;0.73;;
21215;SDS011;10765;50.954;5.322;2022-07-01T14:29:55;2.67;;;0.90;;
21215;SDS011;10765;50.954;5.322;2022-07-01T14:32:23;2.23;;;0.70;;
21215;SDS011;10765;50.954;5.322;2022-07-01T14:34:52;2.87;;;0.60;;
21215;SDS011;10765;50.954;5.322;2022-07-01T14:37:19;2.77;;;0.70;;
21215;SDS011;10765;50.954;5.322;2022-07-01T14:39:46;1.93;;;0.77;;
21215;SDS011;10765;50.954;5.322;2022-07-01T14:42:18;1.83;;;0.80;;
21215;SDS011;10765;50.954;5.322;2022-07-01T14:44:45;3.07;;;0.80;;
21215;SDS011;10765;50.954;5.322;2022-07-01T14:47:14;2.07;;;1.00;;
21215;SDS011;10765;50.954;5.322;2022-07-01T14:49:42;1.57;;;0.80;;
21215;SDS011;10765;50.954;5.322;2022-07-01T14:52:09;2.23;;;0.90;;
21215;SDS011;10765;50.954;5.322;2022-07-01T14:54:36;1.83;;;0.80;;
21215;SDS011;10765;50.954;5.322;2022-07-01T14:57:04;1.90;;;0.80;;
21215;SDS011;10765;50.954;5.322;2022-07-01T14:59:31;1.40;;;0.60;;
21215;SDS011;10765;50.954;5.322;2022-07-01T15:01:59;3.73;;;0.80;;
21215;SDS011;10765;50.954;5.322;2022-07-01T15:04:30;3.83;;;0.97;;
21215;SDS011;10765;50.954;5.322;2022-07-01T15:06:59;3.57;;;0.90;;
21215;SDS011;10765;50.954;5.322;2022-07-01T15:09:26;1.00;;;0.70;;
21215;SDS011;10765;50.954;5.322;2022-07-01T15:11:53;2.40;;;0.70;;